Time;durP1;ratioP1;P1;durP2;ratioP2;P2;SDS_P1;SDS_P2;PMS_P1;PMS_P2;Temp;Humidity;BMP_temperature;BMP_pressure;BME280_temperature;BME280_humidity;BME280_pressure;Samples;Min_cycle;Max_cycle;Signal;HPM_P1;HPM_P2
2023/10/18 00:01:02;;;;;;;33.40;17.90;;;;;;;2.86;90.62;100906.88;105606;1255;81417;-56
2023/10/18 00:03:41;;;;;;;31.00;17.40;;;;;;;2.81;90.76;100902.55;105521;1256;71769;-55
2023/10/18 00:06:15;;;;;;;30.20;17.10;;;;;;;2.76;90.70;100904.61;105649;1256;69199;-54
2023/10/18 00:08:45;;;;;;;21.10;14.40;;;;;;;2.70;90.44;100900.80;105592;1253;69219;-55
2023/10/18 00:11:17;;;;;;;22.80;14.80;;;;;;;2.64;90.36;100905.77;105583;1255;75235;-55
2023/10/18 00:13:50;;;;;;;21.10;13.20;;;;;;;2.59;90.39;100906.45;105514;1255;81349;-54
2023/10/18 00:16:20;;;;;;;23.80;13.90;;;;;;;2.54;90.46;100913.33;105620;1256;71791;-55
2023/10/18 00:18:48;;;;;;;22.50;14.00;;;;;;;2.49;90.36;100914.02;105591;1254;69177;-54
2023/10/18 00:21:16;;;;;;;22.60;13.70;;;;;;;2.43;90.41;100917.60;105535;1256;69225;-55
2023/10/18 00:23:45;;;;;;;20.90;12.00;;;;;;;2.39;90.79;100913.96;105572;1253;73220;-54
2023/10/18 00:26:13;;;;;;;17.30;11.10;;;;;;;2.35;90.77;100916.02;105539;1255;81267;-55
2023/10/18 00:28:42;;;;;;;18.70;11.30;;;;;;;2.30;90.66;100915.30;105604;1253;71798;-55
2023/10/18 00:31:17;;;;;;;22.40;11.60;;;;;;;2.27;90.82;100906.31;105539;1256;69241;-56
2023/10/18 00:33:47;;;;;;;17.80;11.80;;;;;;;2.24;90.78;100904.23;105575;1253;69112;-53
2023/10/18 00:36:18;;;;;;;19.60;11.50;;;;;;;2.21;91.13;100901.11;105591;1253;73064;-55
2023/10/18 00:38:47;;;;;;;20.20;11.60;;;;;;;2.18;91.03;100898.50;105551;1256;81845;-54
2023/10/18 00:41:22;;;;;;;18.80;12.10;;;;;;;2.14;91.08;100895.05;105595;1254;71680;-53
2023/10/18 00:43:52;;;;;;;18.80;10.90;;;;;;;2.11;91.18;100891.75;105581;1253;69121;-55
2023/10/18 00:46:22;;;;;;;19.20;10.90;;;;;;;2.08;91.09;100888.45;105598;1254;69182;-55
2023/10/18 00:48:51;;;;;;;21.70;11.40;;;;;;;2.05;91.13;100884.13;105393;1253;72955;-55
2023/10/18 00:51:19;;;;;;;22.70;11.90;;;;;;;2.03;91.24;100881.70;105455;1255;80196;-55
2023/10/18 00:53:50;;;;;;;23.40;12.20;;;;;;;1.99;91.34;100876.16;105389;1254;71666;-57
2023/10/18 00:56:20;;;;;;;24.70;13.10;;;;;;;1.97;91.27;100879.95;105603;1256;70330;-50
2023/10/18 00:58:48;;;;;;;23.10;13.20;;;;;;;1.95;91.54;100885.27;105363;1253;69141;-53
2023/10/18 01:01:19;;;;;;;21.70;12.10;;;;;;;1.92;91.48;100882.86;105586;1256;74122;-51
2023/10/18 01:03:49;;;;;;;21.50;11.80;;;;;;;1.89;91.24;100882.84;105326;1257;83555;-53
2023/10/18 01:06:26;;;;;;;21.20;12.70;;;;;;;1.88;91.73;100881.27;105628;1254;71801;-54
2023/10/18 01:08:56;;;;;;;22.30;12.30;;;;;;;1.88;91.74;100876.10;105565;1255;69155;-54
2023/10/18 01:11:28;;;;;;;30.10;14.00;;;;;;;1.85;91.87;100871.09;105583;1255;69131;-55
2023/10/18 01:13:59;;;;;;;32.40;16.20;;;;;;;1.82;91.64;100871.42;105574;1256;73314;-55
2023/10/18 01:16:35;;;;;;;31.60;16.40;;;;;;;1.78;91.52;100870.52;105484;1257;80455;-55
2023/10/18 01:19:08;;;;;;;28.90;15.40;;;;;;;1.75;91.60;100870.17;105454;1257;73858;-55
2023/10/18 01:21:42;;;;;;;21.70;12.90;;;;;;;1.71;91.62;100863.59;105547;1255;69109;-55
2023/10/18 01:24:13;;;;;;;20.00;11.90;;;;;;;1.69;91.46;100867.36;105593;1253;69804;-52
2023/10/18 01:26:42;;;;;;;18.80;11.50;;;;;;;1.65;91.46;100864.92;105618;1255;74048;-53
2023/10/18 01:29:10;;;;;;;17.20;10.80;;;;;;;1.62;91.73;100862.49;105597;1255;81548;-54
2023/10/18 01:31:45;;;;;;;17.60;10.60;;;;;;;1.60;91.55;100863.34;105409;1256;72021;-54
2023/10/18 01:34:14;;;;;;;17.30;10.50;;;;;;;1.54;91.58;100853.48;105548;1253;69108;-54
2023/10/18 01:36:43;;;;;;;14.80;10.20;;;;;;;1.51;91.60;100850.02;105593;1255;69189;-53
2023/10/18 01:39:18;;;;;;;17.00;10.20;;;;;;;1.49;91.71;100851.55;105614;1253;73980;-54
2023/10/18 01:41:49;;;;;;;13.40;9.80;;;;;;;1.47;91.73;100849.46;105548;1253;80285;-55
2023/10/18 01:44:33;;;;;;;14.60;9.40;;;;;;;1.45;91.77;100846.18;105606;1253;71659;-54
2023/10/18 01:47:08;;;;;;;13.20;9.10;;;;;;;1.41;91.87;100842.55;105545;1255;69198;-55
2023/10/18 01:49:46;;;;;;;14.40;9.60;;;;;;;1.36;91.52;100836.98;105579;1256;69137;-51
2023/10/18 01:52:17;;;;;;;14.40;9.60;;;;;;;1.33;91.65;100836.29;105590;1255;72859;-54
2023/10/18 01:54:49;;;;;;;14.00;9.30;;;;;;;1.30;91.74;100833.17;105591;1256;81834;-54
2023/10/18 01:57:17;;;;;;;14.20;9.00;;;;;;;1.28;91.74;100831.60;105562;1253;72180;-53
2023/10/18 01:59:49;;;;;;;14.30;10.10;;;;;;;1.24;91.71;100830.53;105524;1257;69161;-53
2023/10/18 02:02:19;;;;;;;13.70;9.40;;;;;;;1.22;91.90;100826.90;105606;1253;69180;-55
2023/10/18 02:04:49;;;;;;;14.20;9.50;;;;;;;1.21;91.95;100826.38;105504;1257;74822;-55
2023/10/18 02:07:21;;;;;;;16.60;10.10;;;;;;;1.20;92.11;100831.54;105560;1252;80935;-51
2023/10/18 02:09:57;;;;;;;13.20;9.40;;;;;;;1.18;91.70;100830.13;105575;1252;73864;-55
2023/10/18 02:12:27;;;;;;;15.10;10.00;;;;;;;1.13;91.88;100831.81;105506;1253;69869;-55
2023/10/18 02:14:56;;;;;;;15.10;10.70;;;;;;;1.09;91.67;100835.21;105601;1253;69202;-55
2023/10/18 02:17:24;;;;;;;13.70;9.60;;;;;;;1.04;91.72;100838.45;105641;1253;74004;-53
2023/10/18 02:19:54;;;;;;;15.00;10.90;;;;;;;1.01;91.67;100836.36;105483;1257;80030;-53
2023/10/18 02:22:22;;;;;;;19.00;12.80;;;;;;;0.99;91.83;100836.16;105474;1257;72932;-54
2023/10/18 02:24:50;;;;;;;17.10;11.80;;;;;;;0.97;91.71;100837.19;105566;1253;69068;-54
2023/10/18 02:27:19;;;;;;;17.50;11.40;;;;;;;0.94;91.60;100838.18;105578;1253;69175;-53
2023/10/18 02:29:51;;;;;;;16.20;10.70;;;;;;;0.89;91.64;100838.14;105491;1253;71835;-54
2023/10/18 02:32:23;;;;;;;17.40;11.00;;;;;;;0.87;91.65;100840.53;105578;1255;81580;-52
2023/10/18 02:34:52;;;;;;;19.20;11.10;;;;;;;0.86;91.71;100842.42;105596;1252;72020;-55
2023/10/18 02:37:24;;;;;;;18.20;11.40;;;;;;;0.85;91.84;100846.02;105541;1256;69110;-53
2023/10/18 02:40:07;;;;;;;19.00;12.30;;;;;;;0.83;91.89;100848.92;105553;1253;69102;-53
2023/10/18 02:42:37;;;;;;;21.30;11.70;;;;;;;0.81;91.71;100847.18;105624;1255;71918;-53
2023/10/18 02:45:12;;;;;;;18.10;11.50;;;;;;;0.77;91.85;100855.23;105630;1255;81277;-54
2023/10/18 02:47:42;;;;;;;17.20;9.90;;;;;;;0.77;91.89;100855.58;105588;1253;71699;-55
2023/10/18 02:50:14;;;;;;;20.10;12.90;;;;;;;0.74;91.66;100858.12;105594;1254;69162;-55
2023/10/18 02:52:46;;;;;;;20.00;12.30;;;;;;;0.70;91.72;100854.46;105583;1254;69196;-54
2023/10/18 02:55:19;;;;;;;19.60;12.10;;;;;;;0.69;91.83;100858.41;105481;1253;72492;-52
2023/10/18 02:57:48;;;;;;;19.60;11.90;;;;;;;0.66;91.79;100856.84;105582;1254;81261;-51
2023/10/18 03:00:17;;;;;;;18.50;11.70;;;;;;;0.63;91.85;100853.55;105619;1253;70981;-50
2023/10/18 03:02:46;;;;;;;20.40;12.50;;;;;;;0.62;91.94;100849.92;105412;1257;69944;-55
2023/10/18 03:05:18;;;;;;;17.00;12.00;;;;;;;0.61;91.97;100846.64;105621;1255;69128;-55
2023/10/18 03:07:46;;;;;;;22.00;13.30;;;;;;;0.61;92.14;100846.83;105590;1254;73163;-53
2023/10/18 03:10:27;;;;;;;20.90;12.90;;;;;;;0.62;92.38;100845.11;105636;1252;82737;-54
2023/10/18 03:12:58;;;;;;;25.40;14.40;;;;;;;0.66;92.58;100841.53;105597;1253;72209;-50
2023/10/18 03:15:28;;;;;;;21.90;13.50;;;;;;;0.67;92.79;100838.95;105487;1253;69110;-51
2023/10/18 03:17:56;;;;;;;21.70;13.20;;;;;;;0.71;92.95;100838.14;105583;1254;70004;-52
2023/10/18 03:20:26;;;;;;;19.40;11.40;;;;;;;0.72;92.89;100840.91;105546;1253;72921;-52
2023/10/18 03:22:55;;;;;;;17.70;11.30;;;;;;;0.72;92.94;100845.04;105573;1255;81396;-54
2023/10/18 03:25:26;;;;;;;18.40;11.80;;;;;;;0.73;92.94;100845.55;105558;1255;72829;-50
2023/10/18 03:27:57;;;;;;;22.60;11.50;;;;;;;0.72;93.05;100838.85;105580;1252;69753;-50
2023/10/18 03:30:41;;;;;;;19.20;11.60;;;;;;;0.73;93.17;100838.68;105581;1253;69094;-53
2023/10/18 03:33:13;;;;;;;17.30;11.50;;;;;;;0.70;93.03;100835.20;105467;1253;72939;-51
2023/10/18 03:35:43;;;;;;;16.60;11.30;;;;;;;0.71;93.16;100831.08;105595;1255;81595;-51
2023/10/18 03:38:18;;;;;;;18.60;11.30;;;;;;;0.75;93.51;100829.58;105585;1253;71457;-51
2023/10/18 03:40:50;;;;;;;15.70;10.10;;;;;;;0.79;93.50;100824.63;105485;1256;70242;-51
2023/10/18 03:43:26;;;;;;;16.30;10.50;;;;;;;0.77;93.22;100825.98;105460;1257;69209;-55
2023/10/18 03:46:13;;;;;;;18.70;11.70;;;;;;;0.76;93.22;100824.42;105486;1254;73924;-54
2023/10/18 03:48:46;;;;;;;20.60;12.20;;;;;;;0.76;93.16;100821.33;105564;1256;81417;-51
2023/10/18 03:51:23;;;;;;;20.10;12.20;;;;;;;0.76;93.07;100813.08;105538;1253;71930;-51
2023/10/18 03:53:53;;;;;;;32.60;17.10;;;;;;;0.76;93.10;100812.39;105477;1255;69168;-50
2023/10/18 03:56:22;;;;;;;31.40;15.80;;;;;;;0.79;93.47;100810.70;105451;1254;70181;-50
2023/10/18 03:59:00;;;;;;;26.30;13.70;;;;;;;0.82;93.58;100803.51;105482;1257;73380;-51
2023/10/18 04:01:39;;;;;;;17.40;11.50;;;;;;;0.85;93.79;100804.21;105540;1253;81451;-52
2023/10/18 04:04:17;;;;;;;20.80;12.20;;;;;;;0.86;93.68;100811.46;105566;1253;71944;-50
2023/10/18 04:06:49;;;;;;;17.20;10.90;;;;;;;0.87;93.70;100811.63;105498;1255;69858;-52
2023/10/18 04:09:18;;;;;;;17.80;11.50;;;;;;;0.85;93.69;100807.66;105529;1255;69199;-51
2023/10/18 04:11:47;;;;;;;20.80;13.60;;;;;;;0.84;93.61;100804.04;105537;1253;72933;-51
2023/10/18 04:14:16;;;;;;;19.00;12.70;;;;;;;0.85;93.83;100796.81;105521;1255;81582;-54
2023/10/18 04:16:53;;;;;;;21.70;12.60;;;;;;;0.87;94.03;100790.64;105526;1253;70437;-54
2023/10/18 04:19:24;;;;;;;23.30;13.40;;;;;;;0.88;94.08;100790.48;105492;1254;69667;-52
2023/10/18 04:21:53;;;;;;;21.40;12.90;;;;;;;0.90;94.07;100792.91;105474;1254;69980;-51
2023/10/18 04:24:23;;;;;;;18.40;11.80;;;;;;;0.94;94.35;100789.67;105535;1253;73315;-50
2023/10/18 04:26:53;;;;;;;16.80;11.20;;;;;;;0.97;94.33;100785.90;105531;1253;81773;-50
2023/10/18 04:29:26;;;;;;;19.20;11.90;;;;;;;0.98;94.47;100788.32;105509;1257;71693;-54
2023/10/18 04:31:56;;;;;;;26.00;14.30;;;;;;;1.01;94.57;100782.66;105453;1252;69178;-51
2023/10/18 04:34:29;;;;;;;22.50;13.50;;;;;;;1.03;94.59;100781.48;105549;1255;69170;-51
2023/10/18 04:36:59;;;;;;;19.00;12.20;;;;;;;1.07;94.75;100777.73;105463;1255;71950;-51
2023/10/18 04:39:28;;;;;;;21.00;13.60;;;;;;;1.10;94.92;100777.92;105476;1255;81886;-51
2023/10/18 04:41:57;;;;;;;29.80;16.30;;;;;;;1.13;94.63;100777.77;105485;1253;71484;-54
2023/10/18 04:44:25;;;;;;;39.60;21.60;;;;;;;1.14;94.87;100773.98;105433;1253;69807;-51
2023/10/18 04:46:56;;;;;;;29.70;17.00;;;;;;;1.15;94.97;100774.17;105455;1255;69926;-51
2023/10/18 04:49:36;;;;;;;22.30;13.50;;;;;;;1.17;94.97;100773.49;105506;1253;72861;-53
2023/10/18 04:52:20;;;;;;;20.00;12.70;;;;;;;1.19;94.96;100768.52;105470;1253;81478;-51
2023/10/18 04:55:00;;;;;;;18.90;11.70;;;;;;;1.22;95.03;100769.23;105547;1256;73057;-53
2023/10/18 04:57:28;;;;;;;22.80;12.00;;;;;;;1.24;95.11;100768.38;105460;1257;69938;-51
2023/10/18 05:00:09;;;;;;;20.20;11.20;;;;;;;1.25;95.24;100765.83;105591;1255;69970;-51
2023/10/18 05:02:38;;;;;;;16.90;10.50;;;;;;;1.26;94.97;100764.27;105611;1253;72831;-53
2023/10/18 05:05:10;;;;;;;17.20;11.30;;;;;;;1.24;94.87;100764.59;105569;1253;81685;-53
2023/10/18 05:07:41;;;;;;;19.70;11.80;;;;;;;1.24;94.98;100769.06;105517;1253;70857;-49
2023/10/18 05:10:14;;;;;;;29.10;14.60;;;;;;;1.24;94.93;100770.10;105633;1255;69906;-49
2023/10/18 05:13:21;;;;;;;;;;;;;;;;;;;;;
2023/10/18 05:15:32;;;;;;;34.00;17.40;;;;;;;1.28;95.24;100772.89;105616;1256;73177;-50
2023/10/18 05:18:05;;;;;;;39.50;19.30;;;;;;;1.31;95.36;100772.05;105639;1257;81504;-50
2023/10/18 05:20:46;;;;;;;43.80;20.40;;;;;;;1.32;95.16;100774.29;105673;1255;71915;-52
2023/10/18 05:23:23;;;;;;;27.60;14.90;;;;;;;1.30;95.08;100769.80;105664;1255;69967;-49
2023/10/18 05:26:17;;;;;;;29.60;16.00;;;;;;;1.29;94.78;100767.91;105530;1257;69720;-54
2023/10/18 05:29:00;;;;;;;21.30;13.00;;;;;;;1.29;95.13;100764.11;105757;1253;72913;-55
2023/10/18 05:31:49;;;;;;;22.70;12.50;;;;;;;1.30;95.16;100762.39;105657;1254;81585;-55
2023/10/18 05:42:03;;;;;;;39.00;22.30;;;;;;;1.32;94.93;100764.13;105670;1255;72505;-52
2023/10/18 05:44:32;;;;;;;38.10;21.50;;;;;;;1.30;94.93;100766.37;105778;1255;81446;-54
2023/10/18 05:47:06;;;;;;;30.70;19.60;;;;;;;1.30;95.04;100769.12;105622;1253;72170;-54
2023/10/18 05:49:41;;;;;;;28.50;16.50;;;;;;;1.29;95.02;100767.39;105684;1256;69901;-54
2023/10/18 05:54:43;;;;;;;21.40;13.50;;;;;;;1.28;95.12;100771.16;105593;1253;72849;-54
2023/10/18 05:57:16;;;;;;;22.70;12.90;;;;;;;1.28;95.22;100773.75;105656;1255;81630;-55
2023/10/18 05:59:46;;;;;;;25.00;15.50;;;;;;;1.30;95.17;100778.92;105755;1253;71566;-54
2023/10/18 06:02:22;;;;;;;23.90;13.70;;;;;;;1.30;95.05;100780.66;105760;1253;69770;-53
2023/10/18 06:04:51;;;;;;;22.70;14.20;;;;;;;1.31;95.02;100783.08;105634;1256;69398;-53
2023/10/18 06:07:23;;;;;;;23.80;12.90;;;;;;;1.29;94.94;100784.95;105632;1253;72913;-51
2023/10/18 06:12:37;;;;;;;26.30;14.30;;;;;;;1.30;94.97;100790.48;105604;1253;71558;-51
2023/10/18 06:15:11;;;;;;;21.80;13.90;;;;;;;1.32;95.04;100789.61;105613;1255;69905;-52
2023/10/18 06:17:47;;;;;;;26.90;15.10;;;;;;;1.34;95.08;100787.91;105783;1256;70038;-53
2023/10/18 06:20:28;;;;;;;23.80;14.30;;;;;;;1.35;95.12;100787.40;105968;1252;72744;-52
2023/10/18 06:23:28;;;;;;;24.00;13.90;;;;;;;1.37;95.06;100788.45;105689;1256;82639;-51
2023/10/18 06:25:57;;;;;;;22.40;14.40;;;;;;;1.39;95.19;100781.91;105591;1253;72683;-52
2023/10/18 06:28:26;;;;;;;24.90;15.30;;;;;;;1.44;95.48;100774.70;105648;1253;69977;-53
2023/10/18 06:30:56;;;;;;;25.10;15.10;;;;;;;1.51;95.66;100781.14;105765;1256;69920;-51
2023/10/18 06:33:27;;;;;;;20.50;13.90;;;;;;;1.53;95.39;100788.90;105672;1253;72875;-51
2023/10/18 06:35:58;;;;;;;22.60;13.40;;;;;;;1.53;95.24;100790.45;105641;1255;82752;-53
2023/10/18 06:38:26;;;;;;;20.10;13.30;;;;;;;1.55;95.24;100794.23;105714;1253;70566;-53
2023/10/18 06:43:36;;;;;;;24.30;15.40;;;;;;;1.66;95.44;100791.89;105544;1256;69901;-50
2023/10/18 06:46:08;;;;;;;25.10;17.00;;;;;;;1.74;95.89;100792.98;105591;1256;73099;-54
2023/10/18 06:48:38;;;;;;;21.70;14.70;;;;;;;1.79;95.71;100789.89;105692;1255;81497;-50
2023/10/18 06:51:17;;;;;;;23.90;13.90;;;;;;;1.82;95.63;100786.64;105599;1253;72721;-51
2023/10/18 06:53:47;;;;;;;21.40;13.20;;;;;;;1.86;95.91;100784.77;105528;1253;70086;-51
2023/10/18 06:56:19;;;;;;;19.50;13.30;;;;;;;1.92;95.67;100784.95;105673;1253;69878;-52
2023/10/18 06:58:48;;;;;;;22.30;14.20;;;;;;;1.98;95.79;100777.58;105700;1253;73283;-52
2023/10/18 07:01:30;;;;;;;23.20;14.10;;;;;;;2.03;95.62;100776.04;105611;1253;81502;-52
2023/10/18 07:04:00;;;;;;;22.90;13.50;;;;;;;2.08;95.65;100776.41;105583;1253;72504;-53
2023/10/18 07:06:35;;;;;;;22.10;13.80;;;;;;;2.09;95.71;100775.38;105788;1255;69167;-52
2023/10/18 07:09:24;;;;;;;23.40;14.60;;;;;;;2.15;95.81;100776.77;105591;1257;69087;-51
2023/10/18 07:12:03;;;;;;;23.50;15.40;;;;;;;2.17;95.84;100776.09;105565;1253;72837;-50
2023/10/18 07:14:32;;;;;;;28.00;18.10;;;;;;;2.21;95.73;100780.08;105771;1253;80280;-50
2023/10/18 07:17:04;;;;;;;26.60;17.30;;;;;;;2.25;95.51;100780.78;105557;1253;73361;-52
2023/10/18 07:19:33;;;;;;;26.70;16.50;;;;;;;2.30;95.60;100777.69;105644;1253;69849;-54
2023/10/18 07:22:06;;;;;;;28.20;14.60;;;;;;;2.34;95.75;100774.94;107486;1253;69101;-56
2023/10/18 07:24:36;;;;;;;20.90;14.70;;;;;;;2.40;95.81;100777.02;105577;1253;73163;-54
2023/10/18 07:27:08;;;;;;;22.40;13.70;;;;;;;2.43;95.61;100773.06;105647;1255;83762;-55
2023/10/18 07:29:37;;;;;;;22.60;14.20;;;;;;;2.52;96.01;100779.47;105492;1253;72290;-55
2023/10/18 07:32:12;;;;;;;22.30;15.40;;;;;;;2.59;95.91;100772.23;106323;1255;69709;-56
2023/10/18 07:34:42;;;;;;;27.50;16.20;;;;;;;2.63;95.71;100767.75;105497;1253;69118;-55
2023/10/18 07:37:17;;;;;;;24.60;15.40;;;;;;;2.68;95.63;100768.10;105552;1255;74080;-56
2023/10/18 07:39:49;;;;;;;25.50;15.90;;;;;;;2.74;95.70;100764.31;105514;1253;81451;-56
2023/10/18 07:42:20;;;;;;;29.50;17.60;;;;;;;2.81;95.88;100768.98;105524;1253;70857;-54
2023/10/18 07:44:55;;;;;;;26.30;16.80;;;;;;;2.91;96.14;100767.77;105629;1253;69075;-51
2023/10/18 07:47:31;;;;;;;30.80;17.10;;;;;;;2.97;95.78;100764.50;105562;1255;69206;-51
2023/10/18 07:50:10;;;;;;;29.20;18.00;;;;;;;3.05;96.28;100759.82;105542;1253;72923;-51
2023/10/18 07:52:38;;;;;;;22.70;15.50;;;;;;;3.21;96.57;100761.02;105527;1256;81653;-55
2023/10/18 07:55:07;;;;;;;20.10;13.80;;;;;;;3.31;96.41;100764.46;105512;1253;70218;-54
2023/10/18 07:57:36;;;;;;;24.70;15.60;;;;;;;3.40;96.36;100767.21;105593;1253;69115;-54
2023/10/18 08:00:21;;;;;;;25.90;16.20;;;;;;;3.47;96.27;100761.16;105557;1255;69163;-55
2023/10/18 08:02:50;;;;;;;25.40;16.60;;;;;;;3.51;96.00;100759.93;105567;1253;74153;-53
2023/10/18 08:05:30;;;;;;;26.90;16.10;;;;;;;3.57;95.96;100765.11;105567;1255;81510;-55
2023/10/18 08:08:03;;;;;;;22.40;15.20;;;;;;;3.61;95.89;100768.38;105561;1252;72995;-54
2023/10/18 08:10:32;;;;;;;21.30;15.20;;;;;;;3.72;96.18;100761.09;105556;1254;69177;-54
2023/10/18 08:13:10;;;;;;;25.70;14.40;;;;;;;3.85;96.76;100760.52;105568;1256;69176;-54
2023/10/18 08:15:50;;;;;;;22.40;14.50;;;;;;;3.98;96.85;100763.76;105561;1255;73036;-53
2023/10/18 08:18:39;;;;;;;21.80;15.40;;;;;;;4.14;96.95;100760.23;105564;1255;80306;-52
2023/10/18 08:21:08;;;;;;;21.80;14.80;;;;;;;4.28;96.73;100752.89;105535;1253;72009;-55
2023/10/18 08:23:37;;;;;;;24.20;15.20;;;;;;;4.38;96.51;100755.94;105580;1254;69167;-54
2023/10/18 08:26:05;;;;;;;20.90;14.70;;;;;;;4.51;96.44;100754.13;105563;1255;69190;-55
2023/10/18 08:28:38;;;;;;;22.20;15.80;;;;;;;4.66;96.68;100746.07;105614;1253;72775;-52
2023/10/18 08:31:29;;;;;;;21.00;14.70;;;;;;;4.78;96.69;100748.41;105564;1258;81518;-51
2023/10/18 08:34:05;;;;;;;20.90;14.30;;;;;;;4.86;96.43;100745.41;105524;1255;71979;-55
2023/10/18 08:36:34;;;;;;;23.30;16.30;;;;;;;5.00;96.61;100742.52;105563;1253;69067;-54
2023/10/18 08:39:02;;;;;;;23.70;16.60;;;;;;;5.19;96.62;100741.99;105489;1254;69159;-55
2023/10/18 08:41:32;;;;;;;24.40;16.30;;;;;;;5.35;96.69;100742.88;105591;1255;73049;-55
2023/10/18 08:44:04;;;;;;;24.30;16.30;;;;;;;5.49;96.42;100744.45;105584;1256;81851;-55
2023/10/18 08:46:38;;;;;;;26.30;16.70;;;;;;;5.54;96.06;100744.41;105533;1255;71300;-55
2023/10/18 08:49:08;;;;;;;24.40;17.30;;;;;;;5.58;96.05;100747.83;105564;1253;69089;-52
2023/10/18 08:51:37;;;;;;;23.70;17.50;;;;;;;5.61;95.67;100749.71;105580;1253;69868;-54
2023/10/18 08:54:17;;;;;;;27.30;17.50;;;;;;;5.67;95.94;100749.46;105636;1255;73563;-55
2023/10/18 08:56:47;;;;;;;27.30;17.80;;;;;;;5.73;95.52;100746.61;105563;1252;82819;-55
2023/10/18 08:59:18;;;;;;;26.30;17.30;;;;;;;5.81;95.64;100747.91;105551;1253;71753;-54
2023/10/18 09:02:09;;;;;;;26.50;18.50;;;;;;;5.93;95.69;100740.16;105518;1255;69190;-54
2023/10/18 09:04:37;;;;;;;25.40;17.90;;;;;;;6.08;96.12;100740.16;105546;1253;69174;-53
2023/10/18 09:09:57;;;;;;;29.30;18.70;;;;;;;6.46;96.18;100726.27;105483;1253;81841;-55
2023/10/18 09:13:29;;;;;;;29.10;19.80;;;;;;;6.66;96.57;100724.91;105528;1254;70486;-56
2023/10/18 09:15:27;;;;;;;27.40;19.10;;;;;;;6.78;95.80;100727.67;105515;1253;69153;-56
2023/10/18 09:17:57;;;;;;;26.10;18.10;;;;;;;6.75;94.85;100729.11;105524;1255;69187;-56
2023/10/18 09:20:26;;;;;;;;;;;;;;;6.68;94.53;100726.63;105536;1253;73927;-55
2023/10/18 09:22:54;;;;;;;24.80;18.40;;;;;;;6.75;94.75;100721.13;105558;1255;81578;-52
2023/10/18 09:25:24;;;;;;;26.60;18.60;;;;;;;6.93;95.68;100716.48;105502;1253;71648;-53
2023/10/18 09:27:52;;;;;;;25.40;18.20;;;;;;;7.21;96.37;100716.52;105536;1255;69838;-52
2023/10/18 09:30:21;;;;;;;23.20;17.60;;;;;;;7.48;96.55;100711.31;105565;1259;69175;-53
2023/10/18 09:32:49;;;;;;;26.40;18.40;;;;;;;7.77;96.50;100709.88;105510;1255;71797;-52
2023/10/18 09:35:26;;;;;;;24.10;17.20;;;;;;;8.07;96.24;100703.83;105581;1255;80508;-52
2023/10/18 09:38:01;;;;;;;24.00;17.40;;;;;;;8.35;95.73;100699.04;105453;1253;71651;-52
2023/10/18 09:40:30;;;;;;;22.80;16.60;;;;;;;8.61;95.60;100691.81;105511;1253;69142;-55
2023/10/18 09:42:58;;;;;;;23.30;17.80;;;;;;;8.89;95.20;100693.39;105609;1255;69196;-55
2023/10/18 09:45:28;;;;;;;21.90;16.90;;;;;;;9.20;95.00;100689.47;105523;1255;73479;-56
2023/10/18 09:47:58;;;;;;;;;;;;;;;9.46;94.51;100690.67;105523;1255;80364;-54
2023/10/18 09:50:28;;;;;;;22.90;16.40;;;;;;;9.70;93.68;100687.38;105526;1253;71319;-54
2023/10/18 09:52:57;;;;;;;20.50;14.70;;;;;;;9.91;93.32;100680.30;105593;1253;69156;-56
2023/10/18 09:55:27;;;;;;;20.20;14.10;;;;;;;10.19;92.91;100671.61;105570;1253;69013;-55
2023/10/18 09:58:04;;;;;;;;;;;;;;;10.42;92.27;100667.60;105534;1253;72001;-55
2023/10/18 10:00:43;;;;;;;17.30;13.80;;;;;;;10.71;91.88;100665.41;105546;1255;82123;-53
2023/10/18 10:03:14;;;;;;;18.40;13.30;;;;;;;10.97;91.37;100659.97;105532;1253;72854;-56
2023/10/18 10:05:43;;;;;;;17.70;12.90;;;;;;;11.30;90.97;100655.33;105532;1253;69494;-56
2023/10/18 10:08:11;;;;;;;16.00;12.60;;;;;;;11.55;89.96;100652.48;105523;1255;69179;-54
2023/10/18 10:10:44;;;;;;;14.40;11.60;;;;;;;11.77;89.35;100651.30;105575;1257;71543;-55
2023/10/18 10:13:25;;;;;;;17.00;12.70;;;;;;;12.01;88.81;100649.91;105539;1253;80459;-56
2023/10/18 10:16:03;;;;;;;18.00;12.10;;;;;;;12.27;87.77;100647.50;105552;1251;73113;-55
2023/10/18 10:18:34;;;;;;;16.00;12.10;;;;;;;12.50;87.42;100642.54;105541;1253;69185;-56
2023/10/18 10:21:06;;;;;;;17.50;12.70;;;;;;;12.75;86.98;100639.91;105458;1253;69077;-53
2023/10/18 10:23:41;;;;;;;15.40;12.20;;;;;;;12.95;86.22;100632.90;105538;1253;73986;-55
2023/10/18 10:26:11;;;;;;;16.40;12.10;;;;;;;13.21;85.65;100627.91;105484;1257;82800;-55
2023/10/18 10:31:58;;;;;;;14.90;11.60;;;;;;;13.64;83.36;100620.39;105464;1253;69193;-55
2023/10/18 10:34:32;;;;;;;14.10;10.60;;;;;;;13.82;82.41;100614.08;105531;1256;69216;-55
2023/10/18 10:37:12;;;;;;;13.70;10.20;;;;;;;14.02;81.75;100612.30;105515;1255;74218;-55
2023/10/18 10:39:45;;;;;;;14.80;10.20;;;;;;;14.27;80.84;100611.58;105549;1255;82735;-56
2023/10/18 10:42:41;;;;;;;13.30;9.80;;;;;;;14.47;79.90;100613.27;105497;1253;71503;-55
2023/10/18 10:47:50;;;;;;;13.20;10.60;;;;;;;14.95;78.38;100604.89;105523;1256;69157;-56
2023/10/18 10:50:50;;;;;;;11.90;10.20;;;;;;;15.01;77.59;100605.75;105576;1253;74242;-56
2023/10/18 10:53:29;;;;;;;12.10;9.60;;;;;;;15.13;77.19;100604.98;105478;1255;81468;-53
2023/10/18 10:55:57;;;;;;;12.50;10.20;;;;;;;15.39;76.80;100600.05;105504;1253;72085;-55
2023/10/18 10:58:38;;;;;;;11.10;9.60;;;;;;;15.52;75.82;100601.31;105500;1253;69787;-56
2023/10/18 11:01:07;;;;;;;10.90;9.20;;;;;;;15.60;75.11;100598.05;105551;1253;69096;-56
2023/10/18 11:03:59;;;;;;;12.70;9.00;;;;;;;15.75;74.42;100591.10;105587;1255;72954;-54
2023/10/18 11:06:32;;;;;;;12.10;9.60;;;;;;;15.97;73.65;100581.25;105526;1256;81627;-55
2023/10/18 11:09:00;;;;;;;11.50;8.20;;;;;;;16.10;73.02;100575.89;105538;1256;72842;-56
2023/10/18 11:11:29;;;;;;;12.30;9.90;;;;;;;16.30;72.69;100575.84;105521;1256;69084;-56
2023/10/18 11:13:58;;;;;;;11.20;8.60;;;;;;;16.52;72.10;100574.02;105582;1253;69204;-56
2023/10/18 11:16:26;;;;;;;10.10;8.40;;;;;;;16.63;71.19;100568.59;105549;1256;73136;-56
2023/10/18 11:18:55;;;;;;;10.50;7.80;;;;;;;16.74;70.86;100564.24;105573;1256;81467;-55
2023/10/18 11:21:28;;;;;;;14.30;7.70;;;;;;;16.89;69.86;100564.42;105573;1253;73063;-56
2023/10/18 11:23:57;;;;;;;8.30;7.40;;;;;;;17.00;68.95;100557.73;105515;1254;69200;-55
2023/10/18 11:26:27;;;;;;;8.40;7.10;;;;;;;17.10;68.04;100556.20;105583;1253;69068;-55
2023/10/18 11:28:58;;;;;;;;;;;;;;;17.16;67.28;100551.64;105572;1255;74041;-57
2023/10/18 11:31:27;;;;;;;10.70;7.10;;;;;;;17.22;67.00;100548.75;105565;1255;81596;-55
2023/10/18 11:34:05;;;;;;;11.60;7.30;;;;;;;17.44;66.46;100549.20;105545;1253;71536;-55
2023/10/18 11:36:35;;;;;;;9.60;7.40;;;;;;;17.44;65.28;100548.27;105530;1253;69068;-55
2023/10/18 11:39:18;;;;;;;9.70;7.80;;;;;;;17.39;65.14;100543.63;105571;1256;69066;-56
2023/10/18 11:41:56;;;;;;;7.80;6.90;;;;;;;17.43;64.39;100536.50;105552;1253;73233;-54
2023/10/18 11:44:31;;;;;;;10.00;6.90;;;;;;;17.51;63.68;100533.17;105552;1256;81501;-56
2023/10/18 11:47:01;;;;;;;8.50;6.50;;;;;;;17.50;62.92;100531.27;105532;1253;71812;-56
2023/10/18 11:49:42;;;;;;;8.90;6.80;;;;;;;17.51;62.90;100526.09;105594;1256;69199;-56
2023/10/18 11:52:25;;;;;;;8.80;6.70;;;;;;;17.70;62.97;100522.58;105574;1255;69122;-56
2023/10/18 11:55:08;;;;;;;9.80;6.70;;;;;;;18.06;62.96;100516.73;105554;1253;73212;-57
2023/10/18 11:57:41;;;;;;;9.40;7.80;;;;;;;18.24;61.92;100507.07;105554;1253;81566;-56
2023/10/18 12:02:53;;;;;;;8.40;7.50;;;;;;;18.31;60.51;100504.30;105484;1253;69112;-56
2023/10/18 12:05:27;;;;;;;9.80;7.50;;;;;;;18.28;60.18;100501.27;105502;1256;69092;-57